Time;durP1;ratioP1;P1;durP2;ratioP2;P2;SDS_P1;SDS_P2;PMS_P1;PMS_P2;Temp;Humidity;BMP_temperature;BMP_pressure;BME280_temperature;BME280_humidity;BME280_pressure;Samples;Min_cycle;Max_cycle;Signal;HPM_P1;HPM_P2
2022/11/05 00:09:31;;;;;;;0.05;0.05;;;4.60;99.90;;;;;;5059423;28;20061;-75
2022/11/05 00:17:29;;;;;;;0.30;0.30;;;4.40;48.50;;;;;;5058445;28;20046;-76
2022/11/05 00:19:54;;;;;;;0.73;0.25;;;4.30;39.50;;;;;;5057111;28;20047;-76
2022/11/05 00:25:15;;;;;;;0.10;0.10;;;4.20;20.10;;;;;;5056497;28;20060;-75
2022/11/05 00:27:44;;;;;;;0.08;0.08;;;4.10;7.10;;;;;;5040004;28;20045;-77
2022/11/05 00:30:12;;;;;;;0.10;0.10;;;4.00;14.80;;;;;;5057832;28;20606;-74
2022/11/05 00:32:38;;;;;;;0.20;0.20;;;4.00;1.00;;;;;;5057140;28;20071;-75
2022/11/05 00:35:06;;;;;;;0.13;0.13;;;4.00;1.00;;;;;;5057777;28;20045;-74
2022/11/05 00:37:31;;;;;;;0.28;0.28;;;3.90;1.00;;;;;;5040880;28;20521;-76
2022/11/05 00:39:57;;;;;;;0.00;0.00;;;3.90;1.00;;;;;;5057596;28;20108;-75
2022/11/05 00:45:07;;;;;;;0.40;0.35;;;3.90;24.70;;;;;;5056542;28;20547;-75
2022/11/05 00:50:19;;;;;;;0.10;0.10;;;4.00;93.60;;;;;;5055273;28;20107;-76
2022/11/05 00:52:56;;;;;;;0.00;0.00;;;4.00;99.90;;;;;;5054792;28;20049;-76
2022/11/05 00:55:23;;;;;;;0.55;0.55;;;4.10;99.90;;;;;;5037774;28;20052;-76
2022/11/05 00:57:49;;;;;;;0.45;0.45;;;4.10;99.90;;;;;;5057694;28;20048;-76
2022/11/05 01:00:15;;;;;;;0.00;0.00;;;4.00;99.90;;;;;;5057812;28;20049;-76
2022/11/05 01:02:41;;;;;;;6.65;2.65;;;4.00;99.90;;;;;;5056369;28;20040;-75
2022/11/05 01:05:07;;;;;;;0.00;0.00;;;3.90;98.80;;;;;;5055786;28;20037;-75
2022/11/05 01:07:33;;;;;;;0.52;0.52;;;3.80;93.00;;;;;;5055890;28;20071;-76
2022/11/05 01:09:58;;;;;;;0.00;0.00;;;3.80;92.00;;;;;;5055958;28;20041;-74
2022/11/05 01:12:24;;;;;;;0.00;0.00;;;3.70;85.20;;;;;;5053454;28;20060;-76
2022/11/05 01:14:49;;;;;;;0.00;0.00;;;3.70;86.30;;;;;;5055433;28;20546;-76
2022/11/05 01:17:15;;;;;;;0.00;0.00;;;3.60;82.10;;;;;;5054176;28;20127;-76
2022/11/05 01:19:41;;;;;;;0.00;0.00;;;3.60;91.10;;;;;;5054015;28;20045;-76
2022/11/05 01:22:07;;;;;;;0.10;0.10;;;4.20;95.50;;;;;;5052695;28;20500;-75
2022/11/05 01:24:32;;;;;;;0.00;0.00;;;3.60;98.60;;;;;;5051234;28;20091;-76
2022/11/05 01:26:58;;;;;;;0.10;0.10;;;3.70;99.90;;;;;;5052085;28;20053;-75
2022/11/05 01:29:24;;;;;;;0.00;0.00;;;3.70;99.90;;;;;;5052023;28;20055;-75
2022/11/05 01:31:49;;;;;;;0.00;0.00;;;3.80;99.90;;;;;;5052518;28;20124;-74
2022/11/05 01:34:15;;;;;;;0.88;0.80;;;3.80;99.90;;;;;;5054184;28;20045;-76
2022/11/05 01:36:41;;;;;;;0.00;0.00;;;3.70;99.90;;;;;;5055070;28;20049;-75
2022/11/05 01:39:06;;;;;;;0.05;0.05;;;3.70;99.90;;;;;;5053776;28;20118;-75
2022/11/05 01:41:32;;;;;;;0.00;0.00;;;3.70;99.90;;;;;;5052213;28;20037;-74
2022/11/05 01:43:58;;;;;;;2.50;0.80;;;3.70;99.90;;;;;;5054337;28;20037;-75
2022/11/05 01:46:27;;;;;;;0.60;0.40;;;3.60;99.90;;;;;;5034966;28;20033;-75
2022/11/05 01:48:55;;;;;;;0.65;0.60;;;3.60;99.90;;;;;;5052669;28;20081;-76
2022/11/05 01:51:25;;;;;;;0.03;0.03;;;3.60;99.90;;;;;;5052160;28;20420;-75
2022/11/05 01:53:57;;;;;;;0.00;0.00;;;3.60;99.90;;;;;;5052503;28;20052;-75
2022/11/05 01:56:29;;;;;;;1.35;0.65;;;3.60;99.90;;;;;;5052210;28;20393;-76
2022/11/05 01:59:02;;;;;;;0.00;0.00;;;3.60;99.90;;;;;;5052679;28;20084;-76
2022/11/05 02:01:28;;;;;;;0.00;0.00;;;3.60;99.90;;;;;;5053883;28;20098;-75
2022/11/05 02:04:00;;;;;;;0.00;0.00;;;3.60;99.90;;;;;;5052393;28;20041;-74
2022/11/05 02:06:27;;;;;;;0.00;0.00;;;3.60;99.90;;;;;;5052133;28;20052;-76
2022/11/05 02:09:01;;;;;;;0.00;0.00;;;3.50;99.90;;;;;;5051373;28;20044;-75
2022/11/05 02:11:28;;;;;;;0.10;0.10;;;3.50;99.90;;;;;;5051976;28;20057;-76
2022/11/05 02:13:54;;;;;;;0.03;0.03;;;3.50;99.90;;;;;;5051405;28;20535;-75
2022/11/05 02:16:36;;;;;;;0.45;0.45;;;3.50;99.90;;;;;;5052119;28;20053;-75
2022/11/05 02:19:39;;;;;;;0.15;0.15;;;3.40;99.90;;;;;;5051476;28;20068;-74
2022/11/05 02:22:39;;;;;;;0.10;0.10;;;3.40;99.90;;;;;;5051101;28;20106;-76
2022/11/05 02:25:42;;;;;;;0.00;0.00;;;3.40;99.90;;;;;;5049983;28;20057;-74
2022/11/05 02:28:46;;;;;;;3.50;1.27;;;3.30;99.90;;;;;;5049816;28;20155;-74
2022/11/05 02:31:33;;;;;;;0.00;0.00;;;3.40;99.90;;;;;;5049890;28;20052;-74
2022/11/05 02:34:04;;;;;;;0.13;0.13;;;3.40;99.90;;;;;;5049812;28;20048;-75
2022/11/05 02:36:59;;;;;;;0.00;0.00;;;3.30;99.90;;;;;;5048596;28;20033;-74
2022/11/05 02:39:51;;;;;;;9.55;1.00;;;3.40;99.90;;;;;;5048446;28;20059;-75
2022/11/05 02:42:22;;;;;;;0.08;0.08;;;3.30;99.90;;;;;;5049225;28;20049;-74
2022/11/05 02:45:06;;;;;;;0.00;0.00;;;3.40;99.90;;;;;;5049239;28;20056;-75
2022/11/05 02:47:55;;;;;;;0.00;0.00;;;3.50;99.90;;;;;;5048892;28;20055;-74
2022/11/05 02:50:23;;;;;;;0.88;0.82;;;3.40;99.90;;;;;;5048155;28;20045;-75
2022/11/05 02:53:02;;;;;;;0.00;0.00;;;3.40;99.90;;;;;;5048360;28;20053;-75
2022/11/05 02:55:58;;;;;;;0.32;0.32;;;3.50;99.90;;;;;;5049017;28;20057;-75
2022/11/05 03:00:55;;;;;;;0.30;0.22;;;3.60;99.90;;;;;;5069764;22;20064;-80
2022/11/05 03:03:33;;;;;;;4.10;0.98;;;3.60;99.90;;;;;;5043078;28;20053;-78
2022/11/05 03:06:26;;;;;;;0.20;0.20;;;3.60;99.90;;;;;;5044523;28;20044;-78
2022/11/05 03:09:01;;;;;;;0.52;0.35;;;3.60;99.90;;;;;;5032742;28;20083;-78
2022/11/05 03:11:31;;;;;;;0.00;0.00;;;3.60;99.90;;;;;;5008808;28;20060;-78
2022/11/05 03:14:07;;;;;;;0.00;0.00;;;3.50;99.90;;;;;;5042310;28;20056;-78
2022/11/05 03:16:47;;;;;;;0.22;0.22;;;3.50;99.90;;;;;;5039944;28;20196;-78
2022/11/05 03:19:25;;;;;;;0.43;0.20;;;3.40;99.90;;;;;;5025188;28;20095;-78
2022/11/05 03:22:07;;;;;;;0.00;0.00;;;3.40;99.90;;;;;;5024577;28;20088;-79
2022/11/05 03:24:37;;;;;;;0.00;0.00;;;3.40;99.90;;;;;;5043153;28;20667;-79
2022/11/05 03:27:09;;;;;;;0.00;0.00;;;3.40;99.90;;;;;;5045622;28;20037;-78
2022/11/05 03:29:42;;;;;;;0.00;0.00;;;3.40;99.90;;;;;;5045068;28;20406;-78
2022/11/05 03:32:09;;;;;;;0.00;0.00;;;3.40;99.90;;;;;;5045708;28;20053;-79
2022/11/05 03:34:40;;;;;;;0.00;0.00;;;3.40;99.90;;;;;;5044979;28;20425;-79
2022/11/05 03:37:07;;;;;;;0.00;0.00;;;3.50;99.90;;;;;;5048584;28;20581;-79
2022/11/05 03:39:44;;;;;;;0.00;0.00;;;3.50;99.90;;;;;;5048173;28;20052;-78
2022/11/05 03:42:15;;;;;;;0.55;0.55;;;3.50;99.90;;;;;;5048728;28;20088;-78
2022/11/05 03:44:46;;;;;;;0.00;0.00;;;3.60;99.90;;;;;;5048694;28;20070;-79
2022/11/05 03:47:20;;;;;;;0.00;0.00;;;3.60;99.90;;;;;;5048691;28;20123;-79
2022/11/05 03:49:56;;;;;;;0.00;0.00;;;3.60;99.90;;;;;;5048528;28;20123;-79
2022/11/05 03:52:27;;;;;;;0.32;0.30;;;3.60;99.90;;;;;;5048931;28;20475;-78
2022/11/05 03:54:53;;;;;;;0.00;0.00;;;3.60;99.90;;;;;;5049531;28;20092;-78
2022/11/05 03:57:25;;;;;;;0.00;0.00;;;3.60;99.90;;;;;;5048302;28;20179;-79
2022/11/05 03:59:51;;;;;;;0.77;0.77;;;3.70;99.90;;;;;;5048133;28;20490;-79
2022/11/05 04:02:19;;;;;;;0.00;0.00;;;3.80;99.90;;;;;;5047781;28;20049;-79
2022/11/05 04:04:45;;;;;;;0.10;0.10;;;3.80;99.90;;;;;;5048527;28;20037;-78
2022/11/05 04:15:25;;;;;;;0.00;0.00;;;3.70;99.90;;;;;;5047502;28;20151;-79
2022/11/05 04:17:51;;;;;;;0.00;0.00;;;3.60;99.90;;;;;;5048620;28;20142;-78
2022/11/05 04:26:05;;;;;;;0.20;0.20;;;3.60;99.90;;;;;;4966567;28;20050;-79
2022/11/05 04:30:17;;;;;;;0.10;0.10;;;3.60;99.90;;;;;;5002390;28;20049;-78
2022/11/05 04:31:16;;;;;;;0.05;0.05;;;3.70;99.90;;;;;;5030639;28;20462;-78
2022/11/05 04:33:41;;;;;;;11.30;1.02;;;3.70;99.90;;;;;;5047770;28;20089;-78
2022/11/05 04:36:07;;;;;;;0.17;0.15;;;3.70;99.90;;;;;;5029725;28;20053;-79
2022/11/05 04:38:33;;;;;;;1.65;1.35;;;3.60;99.90;;;;;;5047355;28;20598;-78
2022/11/05 04:41:12;;;;;;;0.00;0.00;;;3.60;99.90;;;;;;5047029;28;20191;-79
2022/11/05 04:43:38;;;;;;;0.00;0.00;;;3.50;99.90;;;;;;5047615;28;20049;-79
2022/11/05 04:46:03;;;;;;;0.00;0.00;;;3.40;99.90;;;;;;5046348;28;20502;-79
2022/11/05 04:48:29;;;;;;;0.00;0.00;;;3.30;99.90;;;;;;5047357;28;20102;-78
2022/11/05 04:50:54;;;;;;;0.00;0.00;;;3.30;99.90;;;;;;5046653;28;20053;-79
2022/11/05 04:53:20;;;;;;;0.00;0.00;;;3.30;99.90;;;;;;5047074;28;20083;-78
2022/11/05 04:55:46;;;;;;;0.00;0.00;;;3.30;99.90;;;;;;5046896;28;20044;-79
2022/11/05 04:58:11;;;;;;;4.47;0.63;;;3.30;99.90;;;;;;5046816;28;20052;-79
2022/11/05 05:00:37;;;;;;;0.10;0.10;;;3.30;99.90;;;;;;5046119;28;20061;-79
2022/11/05 05:03:03;;;;;;;0.10;0.10;;;3.30;99.90;;;;;;5046947;28;20049;-79
2022/11/05 05:05:29;;;;;;;0.30;0.30;;;3.30;99.90;;;;;;5046859;28;20476;-79
2022/11/05 05:08:00;;;;;;;0.20;0.15;;;3.40;99.90;;;;;;5045132;28;20498;-79
2022/11/05 05:10:26;;;;;;;0.00;0.00;;;3.40;99.90;;;;;;5047619;28;20124;-78
2022/11/05 05:12:52;;;;;;;0.00;0.00;;;3.40;99.90;;;;;;5046782;28;20522;-79
2022/11/05 05:15:18;;;;;;;0.35;0.35;;;3.50;99.90;;;;;;5046782;28;20041;-81
2022/11/05 05:17:48;;;;;;;0.47;0.40;;;3.50;99.90;;;;;;5013555;28;20422;-79
2022/11/05 05:22:58;;;;;;;0.00;0.00;;;3.60;99.90;;;;;;5046910;28;20064;-79
2022/11/05 05:25:24;;;;;;;0.75;0.75;;;3.60;99.90;;;;;;5047255;28;20404;-79
2022/11/05 05:27:49;;;;;;;0.10;0.10;;;3.70;99.90;;;;;;5046578;28;20045;-79
2022/11/05 05:30:15;;;;;;;0.20;0.20;;;3.70;99.90;;;;;;5047096;28;20444;-79
2022/11/05 05:32:41;;;;;;;0.22;0.22;;;3.70;99.90;;;;;;5047315;28;20581;-79
2022/11/05 05:35:07;;;;;;;0.05;0.05;;;3.70;99.90;;;;;;5047387;28;20581;-79
2022/11/05 05:37:33;;;;;;;0.00;0.00;;;3.70;99.90;;;;;;5047017;28;20118;-79
2022/11/05 05:39:58;;;;;;;0.00;0.00;;;3.70;99.90;;;;;;5046492;28;20076;-80
2022/11/05 05:42:24;;;;;;;0.10;0.10;;;3.70;99.90;;;;;;5046103;28;20449;-78
2022/11/05 05:44:50;;;;;;;0.45;0.30;;;3.60;99.90;;;;;;5047050;28;20047;-79
2022/11/05 05:47:15;;;;;;;0.05;0.05;;;3.60;99.90;;;;;;5046716;28;20051;-78
2022/11/05 05:49:41;;;;;;;0.00;0.00;;;3.60;99.90;;;;;;5046906;28;20041;-79
2022/11/05 05:52:06;;;;;;;0.08;0.08;;;3.60;99.90;;;;;;5047521;28;20052;-79
2022/11/05 05:54:32;;;;;;;0.00;0.00;;;3.50;99.90;;;;;;5047825;28;20059;-79
2022/11/05 05:56:58;;;;;;;0.00;0.00;;;3.50;99.90;;;;;;5047470;28;20049;-79
2022/11/05 05:59:24;;;;;;;0.00;0.00;;;3.50;99.90;;;;;;5047116;28;20228;-79
2022/11/05 06:01:49;;;;;;;0.00;0.00;;;3.50;99.90;;;;;;5048636;28;20057;-80
2022/11/05 06:04:15;;;;;;;0.00;0.00;;;3.50;99.90;;;;;;5029954;28;20037;-79
2022/11/05 06:06:41;;;;;;;0.25;0.25;;;3.50;99.90;;;;;;5046666;28;20061;-79
2022/11/05 06:09:06;;;;;;;0.65;0.52;;;3.60;99.90;;;;;;5046029;28;20037;-79
2022/11/05 06:11:32;;;;;;;0.00;0.00;;;3.60;99.90;;;;;;5046078;28;20313;-79
2022/11/05 06:13:58;;;;;;;0.00;0.00;;;3.50;99.90;;;;;;5046238;28;20055;-80
2022/11/05 06:16:24;;;;;;;0.00;0.00;;;3.60;99.90;;;;;;5046312;28;20049;-79
2022/11/05 06:18:50;;;;;;;0.10;0.10;;;3.70;99.90;;;;;;5028358;28;20128;-79
2022/11/05 06:21:16;;;;;;;1.58;0.32;;;3.70;99.90;;;;;;5028016;28;20064;-79
2022/11/05 06:23:44;;;;;;;0.45;0.45;;;3.80;99.90;;;;;;5046411;28;20049;-79
2022/11/05 06:26:12;;;;;;;0.32;0.32;;;3.90;99.90;;;;;;5033211;28;20077;-79
2022/11/05 06:28:38;;;;;;;0.55;0.55;;;4.00;99.90;;;;;;5045498;28;20124;-79
2022/11/05 06:31:04;;;;;;;0.20;0.20;;;4.10;99.90;;;;;;5045015;28;20053;-78
2022/11/05 06:33:30;;;;;;;0.10;0.10;;;4.20;99.90;;;;;;5027626;28;20099;-79
2022/11/05 06:36:00;;;;;;;0.00;0.00;;;4.30;99.90;;;;;;5028244;28;20460;-79
2022/11/05 06:38:28;;;;;;;0.15;0.15;;;4.30;99.90;;;;;;5045902;28;20456;-79
2022/11/05 06:40:56;;;;;;;0.00;0.00;;;4.20;99.90;;;;;;5027540;28;20044;-80
2022/11/05 06:43:22;;;;;;;0.63;0.52;;;4.10;99.90;;;;;;5046085;28;20409;-78
2022/11/05 06:45:48;;;;;;;0.70;0.70;;;4.10;99.90;;;;;;5046053;28;20402;-79
2022/11/05 06:48:13;;;;;;;0.75;0.75;;;4.00;99.90;;;;;;5045588;28;20047;-79
2022/11/05 06:50:42;;;;;;;0.20;0.20;;;4.10;99.90;;;;;;5043549;28;20442;-79
2022/11/05 06:53:08;;;;;;;0.00;0.00;;;4.00;99.90;;;;;;5044994;28;20095;-78
2022/11/05 06:55:34;;;;;;;0.40;0.40;;;4.00;99.90;;;;;;5045957;28;20095;-78
2022/11/05 06:57:59;;;;;;;0.77;0.60;;;4.00;99.90;;;;;;5045857;28;20041;-79
2022/11/05 07:00:25;;;;;;;0.00;0.00;;;3.90;99.90;;;;;;5045939;28;20117;-79
2022/11/05 07:02:51;;;;;;;0.00;0.00;;;3.90;99.90;;;;;;5034763;28;20053;-80
2022/11/05 07:05:17;;;;;;;0.00;0.00;;;3.90;99.90;;;;;;5045721;28;20084;-79
2022/11/05 07:07:43;;;;;;;0.00;0.00;;;4.00;99.90;;;;;;5045078;28;20045;-81
2022/11/05 07:10:15;;;;;;;0.47;0.30;;;4.10;99.90;;;;;;5044448;28;20072;-80
2022/11/05 07:12:40;;;;;;;0.55;0.43;;;4.10;99.90;;;;;;5045684;28;20066;-81
2022/11/05 07:15:07;;;;;;;0.13;0.13;;;4.20;99.90;;;;;;5045168;28;20045;-80
2022/11/05 07:17:32;;;;;;;0.00;0.00;;;4.20;99.90;;;;;;5044645;28;20502;-80
2022/11/05 07:19:58;;;;;;;0.10;0.10;;;4.20;99.90;;;;;;5045240;28;20044;-80
2022/11/05 07:22:24;;;;;;;0.00;0.00;;;4.20;99.90;;;;;;5042748;28;20049;-79
2022/11/05 07:24:49;;;;;;;0.00;0.00;;;4.30;99.90;;;;;;5034685;28;20045;-78
2022/11/05 07:27:15;;;;;;;0.00;0.00;;;4.50;99.90;;;;;;5029437;28;20083;-80
2022/11/05 07:29:41;;;;;;;0.10;0.10;;;4.40;99.90;;;;;;5045499;28;20091;-78
2022/11/05 07:32:07;;;;;;;0.47;0.47;;;4.50;99.90;;;;;;5046218;28;20064;-78
2022/11/05 07:34:33;;;;;;;0.10;0.10;;;4.60;99.90;;;;;;5046774;28;20140;-80
2022/11/05 07:36:58;;;;;;;0.17;0.17;;;4.60;99.90;;;;;;5046371;28;20049;-79
2022/11/05 07:39:27;;;;;;;0.05;0.05;;;4.70;99.90;;;;;;5027297;28;20057;-79
2022/11/05 07:41:54;;;;;;;0.28;0.28;;;4.80;99.90;;;;;;5040334;28;20052;-80
2022/11/05 07:44:20;;;;;;;0.10;0.10;;;4.80;99.90;;;;;;5040665;28;20120;-80
2022/11/05 07:46:46;;;;;;;0.00;0.00;;;4.80;99.90;;;;;;5040206;28;20128;-80
2022/11/05 07:49:12;;;;;;;0.55;0.47;;;4.80;99.90;;;;;;5040579;28;20124;-80
2022/11/05 07:51:37;;;;;;;1.42;1.33;;;4.90;99.90;;;;;;5040762;28;20147;-78
2022/11/05 07:54:03;;;;;;;0.00;0.00;;;5.00;99.90;;;;;;5022968;28;20055;-78
2022/11/05 07:56:29;;;;;;;0.00;0.00;;;5.00;99.90;;;;;;5040657;28;20045;-78
2022/11/05 07:58:54;;;;;;;0.90;0.40;;;5.10;99.90;;;;;;5039754;28;20041;-78
2022/11/05 08:01:20;;;;;;;0.45;0.45;;;5.20;99.90;;;;;;5040462;28;20611;-78
2022/11/05 08:03:46;;;;;;;1.25;0.65;;;5.20;99.90;;;;;;5040317;28;20029;-78
2022/11/05 08:06:11;;;;;;;0.10;0.10;;;5.30;99.90;;;;;;5040487;28;20044;-79
2022/11/05 08:08:37;;;;;;;0.13;0.13;;;5.40;99.90;;;;;;5039766;28;20041;-81
2022/11/05 08:11:05;;;;;;;0.95;0.60;;;5.40;99.90;;;;;;5036673;28;20485;-79
2022/11/05 08:13:32;;;;;;;0.05;0.05;;;5.50;99.90;;;;;;5024721;28;20545;-79
2022/11/05 08:15:58;;;;;;;0.00;0.00;;;5.60;99.90;;;;;;5039890;28;20088;-78
2022/11/05 08:18:30;;;;;;;0.28;0.15;;;5.60;99.90;;;;;;5040432;28;20433;-78
2022/11/05 08:21:00;;;;;;;0.40;0.40;;;5.70;99.90;;;;;;5037502;28;20041;-79
2022/11/05 08:23:26;;;;;;;0.00;0.00;;;5.70;99.90;;;;;;5042757;28;20128;-79
2022/11/05 08:25:52;;;;;;;0.17;0.17;;;5.80;99.90;;;;;;5043397;28;20045;-79
2022/11/05 08:28:20;;;;;;;0.35;0.35;;;6.00;99.90;;;;;;5043544;28;20040;-79
2022/11/05 08:30:51;;;;;;;0.17;0.17;;;6.00;99.90;;;;;;5042984;28;20045;-80
2022/11/05 08:33:17;;;;;;;0.28;0.20;;;6.10;99.90;;;;;;5040786;28;20098;-78
2022/11/05 08:35:43;;;;;;;4.25;0.73;;;6.30;99.90;;;;;;5042206;28;20522;-78
2022/11/05 08:38:14;;;;;;;0.10;0.10;;;6.30;99.90;;;;;;5042376;28;20075;-80
2022/11/05 08:40:41;;;;;;;0.00;0.00;;;6.40;99.90;;;;;;5043193;28;20079;-79
2022/11/05 08:43:09;;;;;;;1.70;1.30;;;6.50;99.90;;;;;;5041055;28;20094;-79
2022/11/05 08:45:35;;;;;;;1.55;0.57;;;6.70;99.90;;;;;;5042598;28;20131;-80
2022/11/05 08:48:06;;;;;;;0.10;0.10;;;6.80;99.90;;;;;;5042566;28;20399;-79
2022/11/05 08:50:31;;;;;;;0.15;0.15;;;6.80;99.90;;;;;;5030776;28;20048;-80
2022/11/05 08:52:57;;;;;;;0.20;0.20;;;7.00;99.90;;;;;;5042729;28;20403;-79
2022/11/05 08:55:23;;;;;;;0.20;0.20;;;7.00;99.90;;;;;;5042819;28;20499;-77
2022/11/05 08:57:55;;;;;;;0.00;0.00;;;7.00;99.90;;;;;;5042987;28;20191;-79
2022/11/05 09:00:21;;;;;;;0.10;0.10;;;7.10;99.90;;;;;;5042189;28;20048;-80
2022/11/05 09:02:46;;;;;;;4.43;1.17;;;7.20;99.90;;;;;;5041323;28;20071;-79
2022/11/05 09:05:12;;;;;;;0.60;0.57;;;7.30;99.90;;;;;;5042599;28;20040;-78
2022/11/05 09:07:37;;;;;;;0.17;0.13;;;7.30;99.90;;;;;;5035278;28;20476;-79
2022/11/05 09:10:03;;;;;;;1.25;0.90;;;7.30;99.90;;;;;;5043262;28;20167;-79
2022/11/05 09:12:29;;;;;;;0.30;0.30;;;7.40;99.90;;;;;;5043364;28;20118;-79
2022/11/05 09:14:55;;;;;;;1.02;1.02;;;7.50;99.90;;;;;;5034852;28;20057;-78
2022/11/05 09:17:22;;;;;;;0.30;0.30;;;7.50;99.90;;;;;;5039994;28;20044;-79
2022/11/05 09:19:48;;;;;;;0.80;0.80;;;7.60;99.90;;;;;;5042244;28;20041;-79
2022/11/05 09:22:13;;;;;;;0.70;0.50;;;7.60;99.90;;;;;;5042350;28;20131;-78
2022/11/05 09:24:41;;;;;;;0.57;0.35;;;7.70;99.90;;;;;;5042373;28;20554;-78
2022/11/05 09:27:15;;;;;;;0.20;0.10;;;7.70;99.90;;;;;;5041799;28;20033;-79
2022/11/05 09:29:40;;;;;;;0.30;0.30;;;7.80;99.90;;;;;;5031873;28;20495;-77
2022/11/05 09:32:07;;;;;;;1.42;0.43;;;7.80;99.90;;;;;;5041258;28;20040;-79
2022/11/05 09:34:33;;;;;;;0.13;0.13;;;8.00;99.90;;;;;;5041450;28;20491;-78
2022/11/05 09:36:59;;;;;;;0.00;0.00;;;8.10;99.90;;;;;;5029680;28;20048;-78
2022/11/05 09:39:25;;;;;;;0.93;0.57;;;8.10;99.90;;;;;;5041874;28;20041;-78
2022/11/05 09:41:55;;;;;;;0.70;0.70;;;8.20;99.90;;;;;;5031438;28;20146;-78
2022/11/05 09:44:24;;;;;;;0.88;0.20;;;8.40;99.90;;;;;;5041431;28;20461;-78
2022/11/05 09:46:59;;;;;;;0.20;0.20;;;8.40;99.90;;;;;;5036883;28;20100;-77
2022/11/05 09:49:34;;;;;;;0.05;0.05;;;8.50;99.90;;;;;;5027457;28;20047;-78
2022/11/05 09:52:00;;;;;;;0.03;0.03;;;8.60;99.90;;;;;;5041825;28;20146;-78
2022/11/05 09:54:30;;;;;;;0.03;0.03;;;8.60;99.90;;;;;;5040020;28;20080;-78
2022/11/05 09:56:56;;;;;;;0.15;0.10;;;8.70;99.90;;;;;;5041423;28;20595;-78
2022/11/05 09:59:48;;;;;;;0.40;0.32;;;8.80;99.90;;;;;;5041538;28;20127;-78
2022/11/05 10:02:19;;;;;;;0.20;0.20;;;8.80;99.90;;;;;;5038364;28;20049;-79
2022/11/05 10:04:47;;;;;;;0.05;0.05;;;8.80;99.90;;;;;;5042512;28;20159;-78
2022/11/05 10:07:18;;;;;;;1.45;1.20;;;8.80;99.90;;;;;;5042607;28;20101;-78
2022/11/05 10:09:47;;;;;;;0.00;0.00;;;8.90;99.90;;;;;;5042162;28;20532;-78
2022/11/05 10:12:20;;;;;;;0.10;0.10;;;9.00;99.90;;;;;;5042344;28;20132;-79
2022/11/05 10:15:03;;;;;;;1.25;0.77;;;9.10;99.90;;;;;;5042804;28;20467;-78
2022/11/05 10:17:31;;;;;;;0.20;0.17;;;9.10;99.90;;;;;;5042834;28;20076;-77
2022/11/05 10:22:32;;;;;;;0.10;0.10;;;9.30;99.90;;;;;;5626025;22;20040;-74
2022/11/05 10:25:45;;;;;;;;;;;;;;;;;;;;;
2022/11/05 10:28:25;;;;;;;0.20;0.20;;;9.70;99.90;;;;;;5025168;28;20044;-93
2022/11/05 10:31:19;;;;;;;0.00;0.00;;;10.20;99.90;;;;;;5037909;28;20040;-92
2022/11/05 10:34:17;;;;;;;;;;;;;;;;;;;;;
2022/11/05 10:37:00;;;;;;;;;;;;;;;;;;;;;
2022/11/05 10:39:34;;;;;;;0.00;0.00;;;10.60;99.90;;;;;;5056008;28;20088;-92
2022/11/05 10:43:14;;;;;;;;;;;;;;;;;;;;;
2022/11/05 10:53:56;;;;;;;0.45;0.32;;;10.30;1.00;;;;;;5401458;22;20068;-78
2022/11/05 10:56:37;;;;;;;6.43;0.75;;;10.40;99.90;;;;;;5034951;28;20617;-78
2022/11/05 10:59:05;;;;;;;0.63;0.63;;;10.50;99.90;;;;;;5039345;28;20041;-78
2022/11/05 11:01:31;;;;;;;2.00;0.73;;;10.60;99.90;;;;;;5030883;28;20128;-78
2022/11/05 11:04:19;;;;;;;0.50;0.50;;;10.60;35.10;;;;;;5033455;28;20048;-78
2022/11/05 11:06:54;;;;;;;3.20;0.20;;;10.80;89.10;;;;;;5031743;28;20610;-77
2022/11/05 11:09:22;;;;;;;0.00;0.00;;;10.90;48.00;;;;;;5035722;28;20151;-78
2022/11/05 11:12:13;;;;;;;1.27;0.73;;;11.00;1.00;;;;;;5035495;28;20044;-79
2022/11/05 11:14:39;;;;;;;0.22;0.10;;;11.10;1.00;;;;;;5042268;28;20056;-78
2022/11/05 11:17:16;;;;;;;0.00;0.00;;;11.20;99.90;;;;;;5041404;28;20057;-78
2022/11/05 11:19:42;;;;;;;0.47;0.28;;;11.30;99.90;;;;;;5041477;28;20044;-78
2022/11/05 11:22:09;;;;;;;0.28;0.05;;;11.20;99.90;;;;;;5041235;28;20047;-78
2022/11/05 11:24:44;;;;;;;0.08;0.03;;;11.20;99.90;;;;;;5041295;28;20064;-78
2022/11/05 11:27:25;;;;;;;0.00;0.00;;;11.40;99.90;;;;;;5025729;28;20135;-77
2022/11/05 11:30:03;;;;;;;0.00;0.00;;;11.60;1.00;;;;;;5041161;28;20051;-79
2022/11/05 11:32:36;;;;;;;2.03;0.28;;;11.80;90.30;;;;;;5040791;28;20485;-79
2022/11/05 11:35:04;;;;;;;0.03;0.03;;;12.00;99.90;;;;;;5040498;28;20064;-79
2022/11/05 11:37:34;;;;;;;0.00;0.00;;;12.20;99.90;;;;;;5016963;28;20053;-79
2022/11/05 11:40:11;;;;;;;0.00;0.00;;;12.40;99.90;;;;;;5034486;28;20048;-79
2022/11/05 11:42:40;;;;;;;0.00;0.00;;;12.60;99.90;;;;;;5032388;28;20076;-79
2022/11/05 11:45:14;;;;;;;0.63;0.40;;;12.80;99.90;;;;;;5032180;28;20045;-78
2022/11/05 11:47:43;;;;;;;0.00;0.00;;;13.00;99.90;;;;;;5035867;28;20106;-79
2022/11/05 11:50:31;;;;;;;0.00;0.00;;;13.00;84.20;;;;;;5017060;28;20038;-79
2022/11/05 11:53:23;;;;;;;0.28;0.28;;;13.10;99.90;;;;;;5023323;28;20115;-78
2022/11/05 11:56:09;;;;;;;0.47;0.47;;;13.20;99.90;;;;;;5022439;28;20468;-77
2022/11/05 11:58:41;;;;;;;0.17;0.15;;;13.30;1.00;;;;;;5022172;28;20057;-80
2022/11/05 12:01:25;;;;;;;0.00;0.00;;;13.20;1.00;;;;;;5013311;28;20057;-79
2022/11/05 12:04:02;;;;;;;0.00;0.00;;;13.20;1.00;;;;;;5047423;28;20084;-78
2022/11/05 12:06:33;;;;;;;22.63;0.57;;;13.10;1.00;;;;;;5047053;28;20120;-77
2022/11/05 12:09:14;;;;;;;0.00;0.00;;;12.90;1.00;;;;;;5047545;28;20690;-76
2022/11/05 12:11:46;;;;;;;0.00;0.00;;;12.70;1.00;;;;;;5047567;28;20048;-78
2022/11/05 12:14:47;;;;;;;0.10;0.10;;;12.60;99.90;;;;;;5047250;28;20124;-77
2022/11/05 12:17:45;;;;;;;0.22;0.10;;;12.60;99.90;;;;;;4946156;29;20514;-77
2022/11/05 12:20:32;;;;;;;0.00;0.00;;;12.70;99.90;;;;;;5026594;28;20449;-77
2022/11/05 12:23:25;;;;;;;0.00;0.00;;;12.80;99.90;;;;;;5030811;28;20111;-78
2022/11/05 12:25:54;;;;;;;0.00;0.00;;;13.10;99.90;;;;;;5029094;28;20112;-78
2022/11/05 12:28:56;;;;;;;0.55;0.17;;;13.00;99.90;;;;;;5046938;28;20076;-78
2022/11/05 12:31:54;;;;;;;0.00;0.00;;;13.10;99.90;;;;;;5047390;28;20490;-77
2022/11/05 12:34:34;;;;;;;0.00;0.00;;;13.00;99.90;;;;;;5048199;28;20109;-77
2022/11/05 12:37:20;;;;;;;0.00;0.00;;;12.90;99.90;;;;;;5047729;28;20067;-78
2022/11/05 12:39:56;;;;;;;0.00;0.00;;;12.80;99.90;;;;;;5047897;28;20735;-78
2022/11/05 12:42:46;;;;;;;0.10;0.10;;;12.70;99.90;;;;;;5048259;28;20048;-77
2022/11/05 12:45:24;;;;;;;1.35;0.52;;;12.70;99.90;;;;;;5047575;28;20045;-77
2022/11/05 12:47:56;;;;;;;0.35;0.10;;;12.60;99.90;;;;;;5047742;28;20049;-77
2022/11/05 12:50:32;;;;;;;1.77;0.65;;;12.60;99.90;;;;;;5048006;28;20049;-78
2022/11/05 12:53:48;;;;;;;0.00;0.00;;;12.50;99.90;;;;;;5047746;28;20644;-78
2022/11/05 12:56:32;;;;;;;0.00;0.00;;;12.40;99.90;;;;;;5042935;28;20047;-78
2022/11/05 12:59:10;;;;;;;2.75;0.20;;;12.30;1.00;;;;;;5029764;28;20053;-78
2022/11/05 13:01:40;;;;;;;0.00;0.00;;;12.10;1.00;;;;;;5048654;28;20155;-77
2022/11/05 13:04:32;;;;;;;0.00;0.00;;;12.00;23.20;;;;;;5028926;28;20052;-78
2022/11/05 13:07:02;;;;;;;0.00;0.00;;;11.80;99.90;;;;;;5046037;28;20047;-78
2022/11/05 13:09:39;;;;;;;0.00;0.00;;;11.60;1.00;;;;;;5028871;28;20084;-78
2022/11/05 13:12:04;;;;;;;;;;;11.50;80.70;;;;;;5047259;28;20059;-77
2022/11/05 13:14:46;;;;;;;0.83;0.43;;;11.30;99.90;;;;;;5029104;28;19924;-77
2022/11/05 13:17:17;;;;;;;0.00;0.00;;;11.20;99.90;;;;;;5046492;28;20037;-78
2022/11/05 13:20:11;;;;;;;0.00;0.00;;;11.20;99.90;;;;;;5044919;28;20048;-78
2022/11/05 13:22:43;;;;;;;0.00;0.00;;;11.20;1.00;;;;;;5045301;28;20045;-78
2022/11/05 13:25:17;;;;;;;0.10;0.10;;;11.40;99.90;;;;;;5045013;28;20049;-79
2022/11/05 13:27:52;;;;;;;0.00;0.00;;;11.50;99.90;;;;;;5045131;28;20041;-78
2022/11/05 13:30:22;;;;;;;0.35;0.30;;;11.50;99.90;;;;;;5044087;28;20291;-78
2022/11/05 13:32:56;;;;;;;0.25;0.22;;;12.50;1.00;;;;;;5045111;28;20079;-78
2022/11/05 13:35:29;;;;;;;0.00;0.00;;;11.70;99.90;;;;;;5044523;28;20179;-78
2022/11/05 13:41:19;;;;;;;0.52;0.22;;;11.90;99.90;;;;;;4997964;28;20412;-78
2022/11/05 13:44:08;;;;;;;0.85;0.60;;;12.00;99.90;;;;;;5032328;28;20494;-78
2022/11/05 13:47:15;;;;;;;0.00;0.00;;;12.10;1.00;;;;;;5045730;28;20045;-77
2022/11/05 13:49:53;;;;;;;0.20;0.20;;;12.10;1.00;;;;;;5007436;28;20053;-78
2022/11/05 13:52:18;;;;;;;0.00;0.00;;;12.10;1.00;;;;;;5024330;28;20561;-78
2022/11/05 13:55:00;;;;;;;0.13;0.13;;;12.00;1.00;;;;;;5033338;28;20333;-77
2022/11/05 13:57:40;;;;;;;0.00;0.00;;;12.00;99.90;;;;;;5044991;28;20044;-77
2022/11/05 14:00:27;;;;;;;0.00;0.00;;;11.90;99.90;;;;;;5044734;28;20080;-77
2022/11/05 14:02:57;;;;;;;0.00;0.00;;;11.80;1.00;;;;;;5045125;28;20048;-78
2022/11/05 14:05:37;;;;;;;0.15;0.08;;;11.80;1.00;;;;;;5044968;28;20494;-78
2022/11/05 14:08:25;;;;;;;0.88;0.45;;;12.10;1.00;;;;;;5043796;28;20049;-77
2022/11/05 14:11:03;;;;;;;0.10;0.10;;;11.70;1.00;;;;;;5044316;28;20055;-77
2022/11/05 14:13:39;;;;;;;0.45;0.40;;;11.70;1.00;;;;;;5044134;28;20052;-77
2022/11/05 14:16:21;;;;;;;2.17;1.48;;;11.70;1.00;;;;;;5043050;28;20049;-77
2022/11/05 14:19:18;;;;;;;2.03;0.25;;;11.60;25.40;;;;;;5043469;28;20056;-78
2022/11/05 14:21:46;;;;;;;0.10;0.10;;;11.60;15.60;;;;;;5043303;28;20072;-78